createdAt,value
2018-01-20T00:00:06.347Z,77.30
2018-01-20T00:02:33.852Z,77.30
2018-01-20T00:05:02.130Z,77.40
2018-01-20T00:07:30.428Z,77.70
2018-01-20T00:10:09.852Z,77.70
2018-01-20T00:12:38.163Z,77.90
2018-01-20T00:15:05.715Z,77.80
2018-01-20T00:17:33.219Z,77.80
2018-01-20T00:20:00.744Z,77.90
2018-01-20T00:22:28.260Z,78.00
2018-01-20T00:25:01.640Z,78.20
2018-01-20T00:27:35.536Z,78.30
2018-01-20T00:30:03.053Z,78.40
2018-01-20T00:32:30.548Z,78.40
2018-01-20T00:34:58.031Z,79.00
2018-01-20T00:37:25.560Z,79.20
2018-01-20T00:39:53.056Z,80.10
2018-01-20T00:42:20.645Z,79.90
2018-01-20T00:44:48.143Z,79.60
2018-01-20T00:47:16.451Z,79.90
2018-01-20T00:49:44.728Z,79.20
2018-01-20T00:52:12.235Z,79.20
2018-01-20T00:54:39.773Z,79.10
2018-01-20T00:57:07.284Z,79.00
2018-01-20T00:59:35.611Z,78.40
2018-01-20T01:02:03.118Z,78.40
2018-01-20T01:04:30.634Z,78.40
2018-01-20T01:06:58.160Z,78.40
2018-01-20T01:09:25.672Z,78.40
2018-01-20T01:11:53.964Z,78.40
2018-01-20T01:14:22.237Z,78.70
2018-01-20T01:16:50.534Z,79.20
2018-01-20T01:19:18.041Z,79.20
2018-01-20T01:21:45.567Z,79.20
2018-01-20T01:24:13.090Z,78.70
2018-01-20T01:26:41.365Z,78.90
2018-01-20T01:29:09.644Z,78.90
2018-01-20T01:31:37.172Z,78.90
2018-01-20T01:34:04.727Z,78.80
2018-01-20T01:36:32.239Z,78.60
2018-01-20T01:38:59.852Z,78.40
2018-01-20T01:41:27.391Z,78.70
2018-01-20T01:43:54.955Z,78.10
2018-01-20T01:46:22.595Z,78.10
2018-01-20T01:48:50.087Z,78.30
2018-01-20T01:51:17.615Z,78.10
2018-01-20T01:53:45.116Z,77.10
2018-01-20T01:56:13.445Z,77.70
2018-01-20T01:58:40.936Z,77.70
2018-01-20T02:01:08.433Z,77.50
2018-01-20T02:03:35.944Z,77.80
2018-01-20T02:06:03.436Z,77.80
2018-01-20T02:08:30.949Z,77.40
2018-01-20T02:10:58.447Z,78.10
2018-01-20T02:13:26.739Z,77.10
2018-01-20T02:15:54.252Z,77.10
2018-01-20T02:18:21.736Z,76.90
2018-01-20T02:20:49.245Z,77.00
2018-01-20T02:23:16.736Z,76.80
2018-01-20T02:25:45.023Z,77.50
2018-01-20T02:28:13.276Z,77.30
2018-01-20T02:30:40.816Z,77.30
2018-01-20T02:33:08.317Z,77.60
2018-01-20T02:35:35.810Z,77.20
2018-01-20T02:38:03.334Z,77.00
2018-01-20T02:40:30.864Z,77.20
2018-01-20T02:42:59.162Z,77.00
2018-01-20T02:45:26.668Z,76.80
2018-01-20T02:47:54.210Z,76.20
2018-01-20T02:50:21.698Z,76.20
2018-01-20T02:52:49.355Z,76.60
2018-01-20T02:55:16.892Z,76.20
2018-01-20T02:57:44.380Z,75.60
2018-01-20T03:00:11.904Z,75.00
2018-01-20T03:02:39.411Z,75.60
2018-01-20T03:05:07.742Z,75.20
2018-01-20T03:07:35.226Z,75.20
2018-01-20T03:10:02.729Z,75.70
2018-01-20T03:12:30.239Z,75.00
2018-01-20T03:14:57.728Z,74.50
2018-01-20T03:17:26.043Z,75.00
2018-01-20T03:19:53.531Z,74.90
2018-01-20T03:22:21.021Z,74.80
2018-01-20T03:24:48.541Z,74.70
2018-01-20T03:27:16.043Z,74.70
2018-01-20T03:29:43.555Z,74.50
2018-01-20T03:32:11.039Z,74.30
2018-01-20T03:34:39.306Z,74.10
2018-01-20T03:37:07.582Z,74.10
2018-01-20T03:39:35.852Z,73.90
2018-01-20T03:42:03.386Z,73.90
2018-01-20T03:44:30.896Z,73.90
2018-01-20T03:46:58.879Z,73.90
2018-01-20T03:49:26.404Z,74.00
2018-01-20T03:51:54.663Z,73.70
2018-01-20T03:54:22.148Z,73.70
2018-01-20T03:56:49.667Z,73.90
2018-01-20T03:59:17.190Z,73.60
2018-01-20T04:01:44.749Z,73.80
2018-01-20T04:04:12.252Z,73.90
2018-01-20T04:06:39.772Z,73.30
2018-01-20T04:09:07.296Z,73.70
2018-01-20T04:11:34.783Z,74.20
2018-01-20T04:14:02.300Z,74.40
2018-01-20T04:16:30.566Z,73.80
2018-01-20T04:18:58.856Z,73.70
2018-01-20T04:21:26.348Z,73.60
2018-01-20T04:23:53.851Z,73.80
2018-01-20T04:26:21.383Z,73.70
2018-01-20T04:28:48.892Z,73.60
2018-01-20T04:31:16.399Z,74.00
2018-01-20T04:33:43.914Z,74.40
2018-01-20T04:36:11.415Z,74.60
2018-01-20T04:38:38.939Z,75.00
2018-01-20T04:41:06.448Z,75.20
2018-01-20T04:43:33.941Z,75.20
2018-01-20T04:46:01.485Z,75.70
2018-01-20T04:48:29.736Z,76.20
2018-01-20T04:50:57.231Z,76.20
2018-01-20T04:53:24.781Z,76.40
2018-01-20T04:55:52.608Z,77.20
2018-01-20T04:58:20.143Z,76.70
2018-01-20T05:00:47.631Z,76.40
2018-01-20T05:03:15.123Z,76.50
2018-01-20T05:05:42.679Z,76.90
2018-01-20T05:08:10.167Z,77.00
2018-01-20T05:10:37.665Z,77.00
2018-01-20T05:13:05.183Z,76.70
2018-01-20T05:15:32.693Z,76.50
2018-01-20T05:18:00.986Z,77.20
2018-01-20T05:20:28.481Z,77.20
2018-01-20T05:22:55.992Z,77.50
2018-01-20T05:25:24.247Z,78.00
2018-01-20T05:27:52.538Z,78.10
2018-01-20T05:30:20.804Z,78.00
2018-01-20T05:32:49.067Z,78.20
2018-01-20T05:35:16.586Z,78.10
2018-01-20T05:37:44.072Z,78.20
2018-01-20T05:40:11.597Z,78.20
2018-01-20T05:42:39.100Z,78.30
2018-01-20T05:45:06.590Z,77.90
2018-01-20T05:47:34.111Z,77.60
2018-01-20T05:50:01.604Z,78.10
2018-01-20T05:52:29.124Z,78.10
2018-01-20T05:54:56.620Z,79.00
2018-01-20T05:57:24.187Z,78.20
2018-01-20T05:59:51.689Z,78.70
2018-01-20T06:02:19.187Z,78.80
2018-01-20T06:04:46.720Z,79.00
2018-01-20T06:07:14.979Z,79.90
2018-01-20T06:09:42.471Z,79.10
2018-01-20T06:12:10.758Z,79.80
2018-01-20T06:14:38.259Z,79.80
2018-01-20T06:17:05.792Z,80.20
2018-01-20T06:19:33.315Z,80.50
2018-01-20T06:22:01.631Z,81.20
2018-01-20T06:24:29.156Z,81.20
2018-01-20T06:26:56.646Z,81.90
2018-01-20T06:29:24.148Z,82.80
2018-01-20T06:31:52.423Z,83.00
2018-01-20T06:34:20.703Z,83.50
2018-01-20T06:36:48.998Z,83.20
2018-01-20T06:39:16.486Z,83.10
2018-01-20T06:41:44.010Z,83.20
2018-01-20T06:44:11.522Z,83.10
2018-01-20T06:46:39.044Z,83.30
2018-01-20T06:49:06.563Z,83.70
2018-01-20T06:51:34.819Z,84.40
2018-01-20T06:54:02.328Z,83.70
2018-01-20T06:56:30.080Z,83.70
2018-01-20T06:58:57.603Z,84.00
2018-01-20T07:01:25.124Z,83.90
2018-01-20T07:03:52.615Z,83.90
2018-01-20T07:06:20.115Z,84.00
2018-01-20T07:08:47.643Z,84.20
2018-01-20T07:11:15.995Z,84.20
2018-01-20T07:13:43.513Z,84.20
2018-01-20T07:16:11.059Z,84.10
2018-01-20T07:18:38.552Z,84.10
2018-01-20T07:21:06.055Z,83.90
2018-01-20T07:23:33.605Z,84.10
2018-01-20T07:26:01.876Z,83.20
2018-01-20T07:28:29.391Z,83.80
2018-01-20T07:30:56.879Z,84.00
2018-01-20T07:33:24.407Z,83.70
2018-01-20T07:35:51.898Z,83.60
2018-01-20T07:38:19.399Z,84.00
2018-01-20T07:40:46.949Z,83.80
2018-01-20T07:43:14.443Z,84.00
2018-01-20T07:45:41.993Z,84.00
2018-01-20T07:48:09.487Z,83.70
2018-01-20T07:50:36.985Z,83.80
2018-01-20T07:53:04.508Z,83.40
2018-01-20T07:55:32.783Z,83.40
2018-01-20T07:58:00.311Z,83.00
2018-01-20T08:00:27.820Z,83.40
2018-01-20T08:02:55.355Z,83.50
2018-01-20T08:05:22.851Z,83.20
2018-01-20T08:07:50.387Z,83.50
2018-01-20T08:10:18.677Z,83.30
2018-01-20T08:12:46.192Z,83.30
2018-01-20T08:15:13.687Z,83.30
2018-01-20T08:17:41.981Z,83.00
2018-01-20T08:20:09.488Z,83.00
2018-01-20T08:22:36.997Z,83.20
2018-01-20T08:25:04.525Z,83.20
2018-01-20T08:27:32.799Z,83.10
2018-01-20T08:30:00.337Z,83.00
2018-01-20T08:32:27.863Z,83.00
2018-01-20T08:34:55.356Z,82.70
2018-01-20T08:37:22.881Z,82.60
2018-01-20T08:39:50.444Z,82.90
2018-01-20T08:42:17.965Z,82.60
2018-01-20T08:44:45.469Z,82.50
2018-01-20T08:47:13.019Z,82.60
2018-01-20T08:49:40.507Z,82.70
2018-01-20T08:52:08.011Z,82.70
2018-01-20T08:54:35.572Z,82.00
2018-01-20T08:57:03.071Z,82.20
2018-01-20T08:59:31.394Z,81.30
2018-01-20T09:01:58.900Z,81.30
2018-01-20T09:04:26.395Z,81.40
2018-01-20T09:06:54.700Z,80.20
2018-01-20T09:09:22.225Z,80.20
2018-01-20T09:11:50.526Z,80.50
2018-01-20T09:14:18.040Z,80.50
2018-01-20T09:16:45.572Z,80.90
2018-01-20T09:19:13.094Z,81.00
2018-01-20T09:21:40.634Z,80.90
2018-01-20T09:24:08.987Z,80.60
2018-01-20T09:26:36.521Z,80.50
2018-01-20T09:29:04.051Z,80.50
2018-01-20T09:31:31.552Z,80.70
2018-01-20T09:33:59.095Z,80.60
2018-01-20T09:36:26.611Z,81.00
2018-01-20T09:38:54.149Z,80.30
2018-01-20T09:41:22.400Z,81.30
2018-01-20T09:43:49.954Z,81.30
2018-01-20T09:46:18.975Z,80.30
2018-01-20T09:48:47.238Z,80.20
2018-01-20T09:51:15.524Z,80.50
2018-01-20T09:53:43.796Z,80.30
2018-01-20T09:56:11.377Z,80.30
2018-01-20T09:58:38.864Z,80.30
2018-01-20T10:01:06.385Z,80.70
2018-01-20T10:03:33.900Z,80.10
2018-01-20T10:06:01.393Z,80.30
2018-01-20T10:08:29.707Z,81.10
2018-01-20T10:10:57.225Z,81.10
2018-01-20T10:13:25.528Z,81.10
2018-01-20T10:15:53.667Z,81.10
2018-01-20T10:18:21.931Z,81.50
2018-01-20T10:20:49.462Z,81.50
2018-01-20T10:23:16.969Z,83.00
2018-01-20T10:25:44.498Z,81.80
2018-01-20T10:28:12.040Z,81.80
2018-01-20T10:30:39.550Z,81.40
2018-01-20T10:33:07.093Z,81.70
2018-01-20T10:35:35.369Z,81.20
2018-01-20T10:38:03.704Z,82.00
2018-01-20T10:40:31.219Z,81.90
2018-01-20T10:42:58.716Z,82.30
2018-01-20T10:45:26.269Z,82.20
2018-01-20T10:47:53.760Z,82.90
2018-01-20T10:50:21.279Z,80.70
2018-01-20T10:52:48.817Z,78.60
2018-01-20T10:55:16.344Z,78.80
2018-01-20T10:57:44.657Z,79.30
2018-01-20T11:00:12.160Z,79.20
2018-01-20T11:02:39.747Z,78.70
2018-01-20T11:05:07.260Z,79.20
2018-01-20T11:07:34.785Z,79.00
2018-01-20T11:10:02.331Z,78.90
2018-01-20T11:12:29.839Z,79.50
2018-01-20T11:14:57.392Z,79.50
2018-01-20T11:17:24.898Z,79.60
2018-01-20T11:19:52.414Z,79.40
2018-01-20T11:22:19.972Z,79.60
2018-01-20T11:24:47.503Z,79.40
2018-01-20T11:27:15.024Z,79.60
2018-01-20T11:29:42.581Z,79.60
2018-01-20T11:32:10.850Z,78.00
2018-01-20T11:34:39.131Z,78.40
2018-01-20T11:37:06.688Z,78.40
2018-01-20T11:39:34.956Z,77.50
2018-01-20T11:42:03.271Z,77.80
2018-01-20T11:44:30.792Z,77.70
2018-01-20T11:46:59.069Z,78.20
2018-01-20T11:49:27.376Z,77.50
2018-01-20T11:51:54.913Z,77.50
2018-01-20T11:54:22.413Z,77.90
2018-01-20T11:56:49.960Z,78.10
2018-01-20T11:59:17.465Z,77.00
2018-01-20T12:01:45.744Z,76.40
2018-01-20T12:04:14.069Z,77.70
2018-01-20T12:06:41.632Z,76.90
2018-01-20T12:09:09.197Z,77.10
2018-01-20T12:11:36.773Z,76.70
2018-01-20T12:14:04.300Z,77.10
2018-01-20T12:16:31.783Z,77.00
2018-01-20T12:18:59.342Z,77.20
2018-01-20T12:21:26.872Z,76.90
2018-01-20T12:23:54.386Z,77.40
2018-01-20T12:26:22.676Z,77.00
2018-01-20T12:28:50.195Z,76.90
2018-01-20T12:31:17.713Z,76.50
2018-01-20T12:33:45.218Z,77.60
2018-01-20T12:36:13.515Z,78.30
2018-01-20T12:38:41.026Z,77.60
2018-01-20T12:41:08.546Z,77.10
2018-01-20T12:43:36.047Z,77.40
2018-01-20T12:46:03.637Z,77.60
2018-01-20T12:48:31.973Z,77.40
2018-01-20T12:50:59.471Z,77.40
2018-01-20T12:53:27.760Z,77.40
2018-01-20T12:55:56.065Z,77.80
2018-01-20T12:58:23.596Z,77.80
2018-01-20T13:00:51.892Z,78.20
2018-01-20T13:03:19.381Z,78.00
2018-01-20T13:05:46.918Z,77.50
2018-01-20T13:08:14.425Z,78.40
2018-01-20T13:10:42.749Z,79.00
2018-01-20T13:13:10.296Z,79.00
2018-01-20T13:15:37.805Z,79.20
2018-01-20T13:18:05.338Z,79.10
2018-01-20T13:20:32.852Z,79.20
2018-01-20T13:23:00.363Z,78.70
2018-01-20T13:25:27.900Z,78.50
2018-01-20T13:27:55.404Z,78.70
2018-01-20T13:30:22.954Z,78.90
2018-01-20T13:32:50.467Z,78.20
2018-01-20T13:35:18.448Z,78.60
2018-01-20T13:37:45.979Z,79.20
2018-01-20T13:40:13.518Z,79.50
2018-01-20T13:42:41.059Z,80.10
2018-01-20T13:45:09.349Z,79.90
2018-01-20T13:47:37.655Z,80.80
2018-01-20T13:50:05.175Z,80.70
2018-01-20T13:52:33.536Z,80.10
2018-01-20T13:55:01.042Z,80.10
2018-01-20T13:57:28.539Z,80.80
2018-01-20T13:59:56.077Z,81.60
2018-01-20T14:02:23.635Z,81.80
2018-01-20T14:04:51.185Z,81.60
2018-01-20T14:07:18.685Z,82.10
2018-01-20T14:09:46.183Z,82.10
2018-01-20T14:12:13.703Z,82.30
2018-01-20T14:14:41.201Z,82.20
2018-01-20T14:17:08.734Z,82.80
2018-01-20T14:19:37.014Z,82.90
2018-01-20T14:22:05.324Z,82.70
2018-01-20T14:24:32.856Z,82.60
2018-01-20T14:27:00.363Z,82.50
2018-01-20T14:29:27.864Z,83.30
2018-01-20T14:31:56.160Z,84.00
2018-01-20T14:34:23.684Z,83.90
2018-01-20T14:36:51.955Z,84.10
2018-01-20T14:39:19.498Z,84.10
2018-01-20T14:41:47.004Z,85.20
2018-01-20T14:44:14.535Z,85.00
2018-01-20T14:46:42.818Z,85.10
2018-01-20T14:49:11.136Z,85.00
2018-01-20T14:51:38.649Z,84.90
2018-01-20T14:54:06.914Z,84.40
2018-01-20T14:56:35.230Z,84.60
2018-01-20T14:59:02.732Z,84.60
2018-01-20T15:01:30.263Z,84.80
2018-01-20T15:03:57.773Z,85.30
2018-01-20T15:06:26.073Z,85.90
2018-01-20T15:08:53.584Z,85.90
2018-01-20T15:11:21.849Z,86.10
2018-01-20T15:13:49.373Z,86.00
2018-01-20T15:16:16.871Z,87.00
2018-01-20T15:18:44.419Z,86.30
2018-01-20T15:21:12.027Z,86.30
2018-01-20T15:23:39.571Z,86.50
2018-01-20T15:26:07.965Z,86.60
2018-01-20T15:28:35.495Z,86.60
2018-01-20T15:31:03.001Z,87.10
2018-01-20T15:33:30.539Z,87.10
2018-01-20T15:35:58.048Z,87.80
2018-01-20T15:38:25.577Z,87.40
2018-01-20T15:40:53.085Z,87.40
2018-01-20T15:43:21.400Z,87.50
2018-01-20T15:45:48.899Z,87.50
2018-01-20T15:48:16.400Z,87.30
2018-01-20T15:50:43.920Z,87.20
2018-01-20T15:53:12.189Z,87.30
2018-01-20T15:55:39.715Z,87.30
2018-01-20T15:58:07.234Z,87.50
2018-01-20T16:00:35.523Z,87.80
2018-01-20T16:03:03.045Z,87.70
2018-01-20T16:05:30.621Z,87.70
2018-01-20T16:07:58.887Z,87.90
2018-01-20T16:10:27.210Z,88.20
2018-01-20T16:12:55.654Z,88.10
2018-01-20T16:15:23.931Z,88.10
2018-01-20T16:17:52.303Z,87.20
2018-01-20T16:20:20.601Z,87.00
2018-01-20T16:22:48.129Z,87.00
2018-01-20T16:25:15.716Z,86.70
2018-01-20T16:27:43.278Z,87.70
2018-01-20T16:30:10.786Z,87.40
2018-01-20T16:32:38.286Z,87.60
2018-01-20T16:35:05.799Z,88.30
2018-01-20T16:37:33.297Z,88.30
2018-01-20T16:40:01.623Z,88.40
2018-01-20T16:42:29.133Z,88.40
2018-01-20T16:44:56.655Z,88.30
2018-01-20T16:47:24.184Z,88.10
2018-01-20T16:49:51.705Z,88.10
2018-01-20T16:52:19.261Z,87.90
2018-01-20T16:54:46.757Z,86.90
2018-01-20T16:57:14.274Z,87.20
2018-01-20T16:59:42.584Z,87.70
2018-01-20T17:02:10.106Z,87.60
2018-01-20T17:04:37.643Z,87.60
2018-01-20T17:07:05.179Z,87.80
2018-01-20T17:09:32.715Z,88.90
2018-01-20T17:12:00.216Z,88.50
2018-01-20T17:14:27.715Z,88.20
2018-01-20T17:16:55.284Z,88.40
2018-01-20T17:19:22.803Z,88.40
2018-01-20T17:21:51.108Z,87.90
2018-01-20T17:24:18.604Z,87.90
2018-01-20T17:26:46.117Z,88.00
2018-01-20T17:29:13.660Z,87.80
2018-01-20T17:31:41.941Z,87.50
2018-01-20T17:34:09.508Z,87.50
2018-01-20T17:36:37.024Z,87.80
2018-01-20T17:39:04.559Z,87.90
2018-01-20T17:41:32.069Z,87.90
2018-01-20T17:43:59.572Z,88.20
2018-01-20T17:46:27.108Z,88.30
2018-01-20T17:48:54.606Z,88.30
2018-01-20T17:51:22.140Z,88.70
2018-01-20T17:53:49.648Z,88.70
2018-01-20T17:56:17.935Z,88.00
2018-01-20T17:58:45.485Z,87.90
2018-01-20T18:01:13.767Z,87.90
2018-01-20T18:03:42.081Z,88.10
2018-01-20T18:06:09.600Z,88.10
2018-01-20T18:08:37.128Z,88.70
2018-01-20T18:11:04.674Z,88.00
2018-01-20T18:13:32.197Z,88.10
2018-01-20T18:15:59.755Z,88.00
2018-01-20T18:18:27.270Z,87.70
2018-01-20T18:20:55.595Z,88.30
2018-01-20T18:23:23.111Z,88.30
2018-01-20T18:25:51.379Z,88.70
2018-01-20T18:28:19.790Z,88.50
2018-01-20T18:30:47.291Z,88.40
2018-01-20T18:33:14.844Z,87.90
2018-01-20T18:35:42.365Z,87.50
2018-01-20T18:38:09.937Z,88.40
2018-01-20T18:40:37.472Z,88.00
2018-01-20T18:43:05.004Z,88.30
2018-01-20T18:45:32.510Z,87.90
2018-01-20T18:48:00.043Z,88.10
2018-01-20T18:50:27.564Z,88.10
2018-01-20T18:52:55.099Z,88.60
2018-01-20T18:55:22.624Z,89.20
2018-01-20T18:57:50.832Z,89.30
2018-01-20T19:00:18.363Z,89.30
2018-01-20T19:02:45.990Z,89.20
2018-01-20T19:05:14.321Z,89.50
2018-01-20T19:07:41.868Z,89.40
2018-01-20T19:10:09.401Z,89.60
2018-01-20T19:12:37.712Z,89.80
2018-01-20T19:15:05.225Z,89.80
2018-01-20T19:17:33.528Z,89.60
2018-01-20T19:20:01.040Z,89.60
2018-01-20T19:22:28.561Z,89.80
2018-01-20T19:24:56.111Z,90.00
2018-01-20T19:27:23.708Z,89.50
2018-01-20T19:29:51.246Z,89.70
2018-01-20T19:32:18.791Z,90.20
2018-01-20T19:34:46.334Z,90.10
2018-01-20T19:37:13.860Z,90.10
2018-01-20T19:39:42.193Z,90.30
2018-01-20T19:42:09.691Z,90.20
2018-01-20T19:44:37.982Z,90.40
2018-01-20T19:47:06.287Z,90.50
2018-01-20T19:49:33.784Z,90.50
2018-01-20T19:52:01.319Z,90.30
2018-01-20T19:54:28.831Z,90.30
2018-01-20T19:56:56.375Z,90.30
2018-01-20T19:59:24.643Z,90.40
2018-01-20T20:01:53.052Z,90.40
2018-01-20T20:04:20.590Z,90.60
2018-01-20T20:06:48.874Z,90.50
2018-01-20T20:09:17.160Z,90.40
2018-01-20T20:11:44.655Z,90.80
2018-01-20T20:14:12.270Z,90.40
2018-01-20T20:16:39.815Z,90.30
2018-01-20T20:19:08.086Z,90.20
2018-01-20T20:21:36.437Z,90.10
2018-01-20T20:24:04.515Z,90.10
2018-01-20T20:26:32.029Z,90.20
2018-01-20T20:28:59.576Z,90.20
2018-01-20T20:31:27.095Z,90.20
2018-01-20T20:33:54.625Z,90.40
2018-01-20T20:36:22.147Z,90.50
2018-01-20T20:38:49.714Z,90.30
2018-01-20T20:41:17.237Z,90.40
2018-01-20T20:43:45.592Z,90.40
2018-01-20T20:46:13.110Z,90.40
2018-01-20T20:48:40.644Z,90.20
2018-01-20T20:51:08.953Z,90.40
2018-01-20T20:53:36.470Z,90.40
2018-01-20T20:56:04.007Z,90.30
2018-01-20T20:58:31.545Z,90.20
2018-01-20T21:00:59.066Z,90.30
2018-01-20T21:03:26.604Z,90.10
2018-01-20T21:05:54.881Z,90.00
2018-01-20T21:08:23.205Z,90.00
2018-01-20T21:10:50.723Z,90.00
2018-01-20T21:13:18.221Z,90.20
2018-01-20T21:15:45.746Z,90.20
2018-01-20T21:18:13.246Z,90.20
2018-01-20T21:20:40.780Z,90.30
2018-01-20T21:23:08.291Z,90.80
2018-01-20T21:25:36.636Z,90.40
2018-01-20T21:28:04.171Z,90.40
2018-01-20T21:30:31.699Z,90.30
2018-01-20T21:32:59.992Z,90.30
2018-01-20T21:35:27.527Z,90.30
2018-01-20T21:37:55.808Z,90.50
2018-01-20T21:40:24.133Z,90.60
2018-01-20T21:42:51.675Z,90.60
2018-01-20T21:45:19.199Z,90.60
2018-01-20T21:47:46.736Z,90.50
2018-01-20T21:50:14.292Z,90.40
2018-01-20T21:52:41.808Z,90.30
2018-01-20T21:55:09.314Z,90.40
2018-01-20T21:57:36.864Z,90.30
2018-01-20T22:00:04.388Z,90.10
2018-01-20T22:02:31.887Z,90.00
2018-01-20T22:05:00.185Z,89.80
2018-01-20T22:07:27.710Z,89.80
2018-01-20T22:09:55.252Z,89.20
2018-01-20T22:12:22.757Z,89.00
2018-01-20T22:14:50.351Z,88.70
2018-01-20T22:17:17.852Z,88.40
2018-01-20T22:19:46.141Z,88.40
2018-01-20T22:22:14.443Z,88.60
2018-01-20T22:24:42.018Z,88.50
2018-01-20T22:27:09.564Z,88.40
2018-01-20T22:29:37.082Z,89.30
2018-01-20T22:32:05.331Z,89.20
2018-01-20T22:34:32.866Z,88.60
2018-01-20T22:37:00.401Z,88.40
2018-01-20T22:39:27.921Z,88.40
2018-01-20T22:41:55.439Z,88.60
2018-01-20T22:44:22.952Z,88.80
2018-01-20T22:46:51.251Z,88.90
2018-01-20T22:49:18.770Z,88.90
2018-01-20T22:51:47.099Z,89.50
2018-01-20T22:54:14.612Z,88.70
2018-01-20T22:56:42.907Z,88.60
2018-01-20T22:59:10.427Z,88.50
2018-01-20T23:01:37.930Z,88.50
2018-01-20T23:04:05.496Z,87.90
2018-01-20T23:06:33.012Z,87.80
2018-01-20T23:09:00.527Z,87.70
2018-01-20T23:11:28.056Z,87.50
2018-01-20T23:13:55.588Z,87.50
2018-01-20T23:16:23.129Z,87.60
2018-01-20T23:18:50.645Z,88.20
2018-01-20T23:21:18.186Z,87.50
2018-01-20T23:23:45.711Z,87.50
2018-01-20T23:26:13.204Z,87.50
2018-01-20T23:28:40.734Z,87.00
2018-01-20T23:31:09.056Z,86.70
2018-01-20T23:33:36.597Z,87.00
2018-01-20T23:36:04.168Z,87.10
2018-01-20T23:38:31.665Z,87.00
2018-01-20T23:40:59.973Z,87.00
2018-01-20T23:43:27.506Z,87.10
2018-01-20T23:45:55.055Z,86.90
2018-01-20T23:48:22.600Z,86.70
2018-01-20T23:50:50.129Z,86.80
2018-01-20T23:53:17.684Z,86.60
2018-01-20T23:55:45.977Z,86.50
2018-01-20T23:58:13.503Z,86.50
